sensor_id;sensor_type;location;lat;lon;timestamp;pressure;altitude;pressure_sealevel;temperature;humidity
6413;BME280;3239;48.714;9.472;2023-02-28T00:00:34;98805.94;;;-1.60;100.00
6413;BME280;3239;48.714;9.472;2023-02-28T00:03:01;98807.66;;;-1.54;100.00
6413;BME280;3239;48.714;9.472;2023-02-28T00:05:28;98804.66;;;-1.56;100.00
6413;BME280;3239;48.714;9.472;2023-02-28T00:07:54;98807.03;;;-1.58;100.00
6413;BME280;3239;48.714;9.472;2023-02-28T00:10:25;98804.25;;;-1.54;100.00
6413;BME280;3239;48.714;9.472;2023-02-28T00:12:51;98797.91;;;-1.60;100.00
6413;BME280;3239;48.714;9.472;2023-02-28T00:15:18;98805.50;;;-1.59;100.00
6413;BME280;3239;48.714;9.472;2023-02-28T00:17:44;98804.34;;;-1.58;100.00
6413;BME280;3239;48.714;9.472;2023-02-28T00:20:11;98796.81;;;-1.63;100.00
6413;BME280;3239;48.714;9.472;2023-02-28T00:22:41;98798.53;;;-1.56;100.00
6413;BME280;3239;48.714;9.472;2023-02-28T00:25:08;98802.66;;;-1.39;100.00
6413;BME280;3239;48.714;9.472;2023-02-28T00:27:36;98804.44;;;-1.49;100.00
6413;BME280;3239;48.714;9.472;2023-02-28T00:30:03;98793.38;;;-1.51;100.00
6413;BME280;3239;48.714;9.472;2023-02-28T00:32:30;98800.06;;;-1.55;100.00
6413;BME280;3239;48.714;9.472;2023-02-28T00:34:56;98804.25;;;-1.42;100.00
6413;BME280;3239;48.714;9.472;2023-02-28T00:37:21;98791.44;;;-1.50;100.00
6413;BME280;3239;48.714;9.472;2023-02-28T00:39:48;98806.16;;;-1.55;100.00
6413;BME280;3239;48.714;9.472;2023-02-28T00:42:13;98803.72;;;-1.49;100.00
6413;BME280;3239;48.714;9.472;2023-02-28T00:44:39;98796.72;;;-1.47;100.00
6413;BME280;3239;48.714;9.472;2023-02-28T00:47:05;98801.66;;;-1.45;100.00
6413;BME280;3239;48.714;9.472;2023-02-28T00:49:31;98803.19;;;-1.44;100.00
6413;BME280;3239;48.714;9.472;2023-02-28T00:51:57;98805.41;;;-1.43;100.00
6413;BME280;3239;48.714;9.472;2023-02-28T00:54:23;98799.94;;;-1.52;100.00
6413;BME280;3239;48.714;9.472;2023-02-28T00:56:50;98808.84;;;-1.55;100.00
6413;BME280;3239;48.714;9.472;2023-02-28T00:59:17;98802.19;;;-1.50;100.00
6413;BME280;3239;48.714;9.472;2023-02-28T01:01:44;98799.84;;;-1.48;100.00
6413;BME280;3239;48.714;9.472;2023-02-28T01:04:10;98798.53;;;-1.44;100.00
6413;BME280;3239;48.714;9.472;2023-02-28T01:06:37;98793.16;;;-1.44;100.00
6413;BME280;3239;48.714;9.472;2023-02-28T01:09:05;98792.97;;;-1.49;100.00
6413;BME280;3239;48.714;9.472;2023-02-28T01:11:32;98796.06;;;-1.51;100.00
6413;BME280;3239;48.714;9.472;2023-02-28T01:13:58;98801.03;;;-1.49;100.00
6413;BME280;3239;48.714;9.472;2023-02-28T01:16:25;98789.81;;;-1.48;100.00
6413;BME280;3239;48.714;9.472;2023-02-28T01:18:51;98800.16;;;-1.46;100.00
6413;BME280;3239;48.714;9.472;2023-02-28T01:21:19;98791.44;;;-1.50;100.00
6413;BME280;3239;48.714;9.472;2023-02-28T01:23:45;98797.03;;;-1.57;100.00
6413;BME280;3239;48.714;9.472;2023-02-28T01:26:22;98789.19;;;-1.52;100.00
6413;BME280;3239;48.714;9.472;2023-02-28T01:28:50;98794.34;;;-1.57;100.00
6413;BME280;3239;48.714;9.472;2023-02-28T01:31:17;98790.81;;;-1.54;100.00
6413;BME280;3239;48.714;9.472;2023-02-28T01:33:44;98791.34;;;-1.59;100.00
6413;BME280;3239;48.714;9.472;2023-02-28T01:36:23;98792.53;;;-1.60;100.00
6413;BME280;3239;48.714;9.472;2023-02-28T01:38:49;98784.13;;;-1.62;100.00
6413;BME280;3239;48.714;9.472;2023-02-28T01:41:29;98795.22;;;-1.60;100.00
6413;BME280;3239;48.714;9.472;2023-02-28T01:44:03;98795.41;;;-1.55;100.00
6413;BME280;3239;48.714;9.472;2023-02-28T01:46:32;98792.06;;;-1.59;100.00
6413;BME280;3239;48.714;9.472;2023-02-28T01:49:28;98802.28;;;-1.54;100.00
6413;BME280;3239;48.714;9.472;2023-02-28T01:51:55;98792.84;;;-1.58;100.00
6413;BME280;3239;48.714;9.472;2023-02-28T01:54:31;98791.88;;;-1.64;100.00
6413;BME280;3239;48.714;9.472;2023-02-28T01:57:06;98784.78;;;-1.58;100.00
6413;BME280;3239;48.714;9.472;2023-02-28T01:59:50;98780.03;;;-1.67;100.00
6413;BME280;3239;48.714;9.472;2023-02-28T02:02:22;98776.16;;;-1.66;100.00
6413;BME280;3239;48.714;9.472;2023-02-28T02:04:57;98776.69;;;-1.71;100.00
6413;BME280;3239;48.714;9.472;2023-02-28T02:07:25;98767.25;;;-1.63;100.00
6413;BME280;3239;48.714;9.472;2023-02-28T02:10:02;98769.28;;;-1.67;100.00
6413;BME280;3239;48.714;9.472;2023-02-28T02:13:05;98779.28;;;-1.67;100.00
6413;BME280;3239;48.714;9.472;2023-02-28T02:33:06;98762.31;;;-1.64;100.00
6413;BME280;3239;48.714;9.472;2023-02-28T02:38:49;98755.63;;;-1.72;100.00
6413;BME280;3239;48.714;9.472;2023-02-28T02:41:46;98758.13;;;-1.65;100.00
6413;BME280;3239;48.714;9.472;2023-02-28T02:45:12;98756.59;;;-1.79;100.00
6413;BME280;3239;48.714;9.472;2023-02-28T02:47:41;98756.50;;;-1.75;100.00
6413;BME280;3239;48.714;9.472;2023-02-28T02:50:17;98751.13;;;-1.75;100.00
6413;BME280;3239;48.714;9.472;2023-02-28T02:52:51;98762.41;;;-1.80;100.00
6413;BME280;3239;48.714;9.472;2023-02-28T02:55:18;98762.72;;;-1.78;100.00
6413;BME280;3239;48.714;9.472;2023-02-28T02:57:54;98756.50;;;-1.75;100.00
6413;BME280;3239;48.714;9.472;2023-02-28T03:00:29;98751.66;;;-1.80;100.00
6413;BME280;3239;48.714;9.472;2023-02-28T03:02:57;98753.03;;;-1.76;100.00
6413;BME280;3239;48.714;9.472;2023-02-28T03:05:41;98741.47;;;-1.73;100.00
6413;BME280;3239;48.714;9.472;2023-02-28T03:08:10;98754.22;;;-1.77;100.00
6413;BME280;3239;48.714;9.472;2023-02-28T03:11:03;98755.00;;;-1.76;100.00
6413;BME280;3239;48.714;9.472;2023-02-28T03:26:12;98772.41;;;-1.68;100.00
6413;BME280;3239;48.714;9.472;2023-02-28T03:31:36;98774.78;;;-1.58;100.00
6413;BME280;3239;48.714;9.472;2023-02-28T03:34:16;98767.88;;;-1.59;100.00
6413;BME280;3239;48.714;9.472;2023-02-28T03:36:59;98768.75;;;-1.62;100.00
6413;BME280;3239;48.714;9.472;2023-02-28T03:39:55;98768.22;;;-1.57;100.00
6413;BME280;3239;48.714;9.472;2023-02-28T03:42:28;98763.50;;;-1.53;100.00
6413;BME280;3239;48.714;9.472;2023-02-28T03:45:05;98772.41;;;-1.56;100.00
6413;BME280;3239;48.714;9.472;2023-02-28T03:47:45;98760.84;;;-1.53;100.00
6413;BME280;3239;48.714;9.472;2023-02-28T03:50:37;98765.97;;;-1.58;100.00
6413;BME280;3239;48.714;9.472;2023-02-28T03:53:13;98769.19;;;-1.51;100.00
6413;BME280;3239;48.714;9.472;2023-02-28T03:55:47;98764.69;;;-1.54;100.00
6413;BME280;3239;48.714;9.472;2023-02-28T03:58:41;98771.13;;;-1.51;100.00
6413;BME280;3239;48.714;9.472;2023-02-28T04:01:14;98765.44;;;-1.53;100.00
6413;BME280;3239;48.714;9.472;2023-02-28T04:03:40;98761.69;;;-1.43;100.00
6413;BME280;3239;48.714;9.472;2023-02-28T04:06:16;98766.63;;;-1.42;100.00
6413;BME280;3239;48.714;9.472;2023-02-28T04:08:43;98771.34;;;-1.46;100.00
6413;BME280;3239;48.714;9.472;2023-02-28T04:11:38;98767.59;;;-1.48;100.00
6413;BME280;3239;48.714;9.472;2023-02-28T04:14:05;98775.13;;;-1.43;100.00
6413;BME280;3239;48.714;9.472;2023-02-28T04:16:33;98771.03;;;-1.48;100.00
6413;BME280;3239;48.714;9.472;2023-02-28T04:18:59;98765.75;;;-1.39;100.00
6413;BME280;3239;48.714;9.472;2023-02-28T04:21:42;98768.66;;;-1.46;100.00
6413;BME280;3239;48.714;9.472;2023-02-28T04:24:10;98772.75;;;-1.41;100.00
6413;BME280;3239;48.714;9.472;2023-02-28T04:26:41;98781.47;;;-1.37;100.00
6413;BME280;3239;48.714;9.472;2023-02-28T04:29:11;98776.72;;;-1.46;100.00
6413;BME280;3239;48.714;9.472;2023-02-28T04:31:37;98763.06;;;-1.39;100.00
6413;BME280;3239;48.714;9.472;2023-02-28T04:34:03;98770.50;;;-1.43;100.00
6413;BME280;3239;48.714;9.472;2023-02-28T04:36:29;98761.69;;;-1.43;100.00
6413;BME280;3239;48.714;9.472;2023-02-28T04:38:55;98767.78;;;-1.43;100.00
6413;BME280;3239;48.714;9.472;2023-02-28T04:41:22;98767.72;;;-1.39;100.00
6413;BME280;3239;48.714;9.472;2023-02-28T04:43:49;98775.84;;;-1.43;100.00
6413;BME280;3239;48.714;9.472;2023-02-28T04:46:16;98771.91;;;-1.38;100.00
6413;BME280;3239;48.714;9.472;2023-02-28T04:48:42;98769.84;;;-1.22;100.00
6413;BME280;3239;48.714;9.472;2023-02-28T04:51:13;98763.75;;;-1.22;100.00
6413;BME280;3239;48.714;9.472;2023-02-28T04:53:41;98769.00;;;-1.31;100.00
6413;BME280;3239;48.714;9.472;2023-02-28T04:56:09;98769.94;;;-1.38;100.00
6413;BME280;3239;48.714;9.472;2023-02-28T04:58:36;98759.00;;;-1.31;100.00
6413;BME280;3239;48.714;9.472;2023-02-28T05:01:06;98771.13;;;-1.39;100.00
6413;BME280;3239;48.714;9.472;2023-02-28T05:03:39;98766.72;;;-1.33;100.00
6413;BME280;3239;48.714;9.472;2023-02-28T05:06:09;98770.28;;;-1.36;100.00
6413;BME280;3239;48.714;9.472;2023-02-28T05:08:34;98776.28;;;-1.32;100.00
6413;BME280;3239;48.714;9.472;2023-02-28T05:11:01;98771.16;;;-1.26;100.00
6413;BME280;3239;48.714;9.472;2023-02-28T05:13:28;98776.84;;;-1.24;100.00
6413;BME280;3239;48.714;9.472;2023-02-28T05:15:55;98771.47;;;-1.24;100.00
6413;BME280;3239;48.714;9.472;2023-02-28T05:18:21;98771.47;;;-1.24;100.00
6413;BME280;3239;48.714;9.472;2023-02-28T05:20:47;98766.31;;;-1.19;100.00
6413;BME280;3239;48.714;9.472;2023-02-28T05:23:14;98761.34;;;-1.20;100.00
6413;BME280;3239;48.714;9.472;2023-02-28T05:25:40;98769.13;;;-1.22;100.00
6413;BME280;3239;48.714;9.472;2023-02-28T05:28:07;98775.56;;;-1.20;100.00
6413;BME280;3239;48.714;9.472;2023-02-28T05:30:33;98777.25;;;-1.13;100.00
6413;BME280;3239;48.714;9.472;2023-02-28T05:32:59;98766.97;;;-1.15;100.00
6413;BME280;3239;48.714;9.472;2023-02-28T05:35:25;98767.03;;;-1.06;100.00
6413;BME280;3239;48.714;9.472;2023-02-28T05:37:51;98767.03;;;-1.06;100.00
6413;BME280;3239;48.714;9.472;2023-02-28T05:40:18;98775.03;;;-1.15;100.00
6413;BME280;3239;48.714;9.472;2023-02-28T05:42:46;98769.19;;;-1.13;100.00
6413;BME280;3239;48.714;9.472;2023-02-28T05:45:12;98776.22;;;-1.16;100.00
6413;BME280;3239;48.714;9.472;2023-02-28T05:47:38;98777.19;;;-1.10;100.00
6413;BME280;3239;48.714;9.472;2023-02-28T05:50:05;98784.16;;;-1.12;100.00
6413;BME280;3239;48.714;9.472;2023-02-28T05:52:31;98786.31;;;-1.07;100.00
6413;BME280;3239;48.714;9.472;2023-02-28T05:54:57;98779.53;;;-1.12;100.00
6413;BME280;3239;48.714;9.472;2023-02-28T05:57:23;98792.78;;;-1.17;100.00
6413;BME280;3239;48.714;9.472;2023-02-28T05:59:49;98792.31;;;-1.03;100.00
6413;BME280;3239;48.714;9.472;2023-02-28T06:02:16;98791.59;;;-1.16;100.00
6413;BME280;3239;48.714;9.472;2023-02-28T06:04:43;98791.47;;;-1.13;100.00
6413;BME280;3239;48.714;9.472;2023-02-28T06:07:10;98799.34;;;-1.18;100.00
6413;BME280;3239;48.714;9.472;2023-02-28T06:09:36;98798.88;;;-1.17;100.00
6413;BME280;3239;48.714;9.472;2023-02-28T06:12:04;98803.00;;;-1.12;100.00
6413;BME280;3239;48.714;9.472;2023-02-28T06:14:32;98791.78;;;-1.11;100.00
6413;BME280;3239;48.714;9.472;2023-02-28T06:17:02;98792.84;;;-1.08;100.00
6413;BME280;3239;48.714;9.472;2023-02-28T06:19:28;98799.53;;;-1.13;100.00
6413;BME280;3239;48.714;9.472;2023-02-28T06:21:56;98798.03;;;-1.14;100.00
6413;BME280;3239;48.714;9.472;2023-02-28T06:24:24;98801.38;;;-1.10;100.00
6413;BME280;3239;48.714;9.472;2023-02-28T06:26:50;98805.13;;;-1.07;100.00
6413;BME280;3239;48.714;9.472;2023-02-28T06:29:16;98807.50;;;-0.97;100.00
6413;BME280;3239;48.714;9.472;2023-02-28T06:31:45;98804.38;;;-0.95;100.00
6413;BME280;3239;48.714;9.472;2023-02-28T06:34:12;98818.66;;;-1.11;100.00
6413;BME280;3239;48.714;9.472;2023-02-28T06:36:39;98810.19;;;-1.09;100.00
6413;BME280;3239;48.714;9.472;2023-02-28T06:39:06;98819.00;;;-1.09;100.00
6413;BME280;3239;48.714;9.472;2023-02-28T06:41:32;98818.78;;;-1.02;100.00
6413;BME280;3239;48.714;9.472;2023-02-28T06:44:05;98825.66;;;-1.01;100.00
6413;BME280;3239;48.714;9.472;2023-02-28T06:46:31;98830.72;;;-1.03;100.00
6413;BME280;3239;48.714;9.472;2023-02-28T06:48:57;98833.00;;;-1.01;100.00
6413;BME280;3239;48.714;9.472;2023-02-28T06:51:23;98829.34;;;-0.95;100.00
6413;BME280;3239;48.714;9.472;2023-02-28T06:53:50;98827.28;;;-1.03;100.00
6413;BME280;3239;48.714;9.472;2023-02-28T06:56:18;98826.75;;;-0.98;100.00
6413;BME280;3239;48.714;9.472;2023-02-28T06:58:50;98823.97;;;-0.95;100.00
6413;BME280;3239;48.714;9.472;2023-02-28T07:01:16;98826.44;;;-1.00;100.00
6413;BME280;3239;48.714;9.472;2023-02-28T07:03:42;98830.94;;;-0.97;100.00
6413;BME280;3239;48.714;9.472;2023-02-28T07:06:07;98831.81;;;-1.00;100.00
6413;BME280;3239;48.714;9.472;2023-02-28T07:08:35;98835.56;;;-0.98;100.00
6413;BME280;3239;48.714;9.472;2023-02-28T07:11:02;98844.28;;;-0.94;100.00
6413;BME280;3239;48.714;9.472;2023-02-28T07:13:28;98834.59;;;-0.91;100.00
6413;BME280;3239;48.714;9.472;2023-02-28T07:15:59;98835.16;;;-0.84;100.00
6413;BME280;3239;48.714;9.472;2023-02-28T07:18:26;98845.44;;;-0.82;100.00
6413;BME280;3239;48.714;9.472;2023-02-28T07:20:52;98847.28;;;-0.79;100.00
6413;BME280;3239;48.714;9.472;2023-02-28T07:23:18;98840.94;;;-0.73;100.00
6413;BME280;3239;48.714;9.472;2023-02-28T07:25:44;98852.56;;;-0.76;100.00
6413;BME280;3239;48.714;9.472;2023-02-28T07:28:11;98848.13;;;-0.70;100.00
6413;BME280;3239;48.714;9.472;2023-02-28T07:30:38;98848.66;;;-0.63;100.00
6413;BME280;3239;48.714;9.472;2023-02-28T07:33:04;98851.16;;;-0.80;100.00
6413;BME280;3239;48.714;9.472;2023-02-28T07:35:30;98849.03;;;-0.85;100.00
6413;BME280;3239;48.714;9.472;2023-02-28T07:37:58;98841.25;;;-0.83;100.00
6413;BME280;3239;48.714;9.472;2023-02-28T07:40:25;98849.44;;;-0.74;100.00
6413;BME280;3239;48.714;9.472;2023-02-28T07:42:50;98854.28;;;-0.82;100.00
6413;BME280;3239;48.714;9.472;2023-02-28T07:45:16;98851.06;;;-0.77;100.00
6413;BME280;3239;48.714;9.472;2023-02-28T07:47:43;98848.78;;;-0.66;100.00
6413;BME280;3239;48.714;9.472;2023-02-28T07:50:12;98846.44;;;-0.76;100.00
6413;BME280;3239;48.714;9.472;2023-02-28T07:52:39;98856.09;;;-0.67;100.00
6413;BME280;3239;48.714;9.472;2023-02-28T07:55:07;98846.81;;;-0.53;100.00
6413;BME280;3239;48.714;9.472;2023-02-28T07:57:33;98853.19;;;-0.47;100.00
6413;BME280;3239;48.714;9.472;2023-02-28T07:59:59;98854.81;;;-0.49;100.00
6413;BME280;3239;48.714;9.472;2023-02-28T08:02:25;98859.53;;;-0.41;100.00
6413;BME280;3239;48.714;9.472;2023-02-28T08:04:51;98853.63;;;-0.48;100.00
6413;BME280;3239;48.714;9.472;2023-02-28T08:07:18;98860.59;;;-0.51;100.00
6413;BME280;3239;48.714;9.472;2023-02-28T08:09:44;98864.03;;;-0.51;100.00
6413;BME280;3239;48.714;9.472;2023-02-28T08:12:11;98863.50;;;-0.46;100.00
6413;BME280;3239;48.714;9.472;2023-02-28T08:14:38;98859.94;;;-0.43;100.00
6413;BME280;3239;48.714;9.472;2023-02-28T08:17:05;98863.59;;;-0.37;100.00
6413;BME280;3239;48.714;9.472;2023-02-28T08:19:31;98859.53;;;-0.41;100.00
6413;BME280;3239;48.714;9.472;2023-02-28T08:21:57;98858.09;;;-0.46;100.00
6413;BME280;3239;48.714;9.472;2023-02-28T08:24:24;98870.91;;;-0.37;100.00
6413;BME280;3239;48.714;9.472;2023-02-28T08:26:50;98864.75;;;-0.25;100.00
6413;BME280;3239;48.714;9.472;2023-02-28T08:29:16;98866.69;;;-0.26;100.00
6413;BME280;3239;48.714;9.472;2023-02-28T08:31:42;98865.50;;;-0.25;100.00
6413;BME280;3239;48.714;9.472;2023-02-28T08:34:09;98867.66;;;-0.32;100.00
6413;BME280;3239;48.714;9.472;2023-02-28T08:36:37;98861.81;;;-0.18;100.00
6413;BME280;3239;48.714;9.472;2023-02-28T08:39:03;98862.59;;;-0.17;100.00
6413;BME280;3239;48.714;9.472;2023-02-28T08:41:29;98857.50;;;-0.16;100.00
6413;BME280;3239;48.714;9.472;2023-02-28T08:43:55;98863.84;;;-0.10;100.00
6413;BME280;3239;48.714;9.472;2023-02-28T08:46:24;98860.28;;;-0.07;100.00
6413;BME280;3239;48.714;9.472;2023-02-28T08:48:55;98862.34;;;-0.11;100.00
6413;BME280;3239;48.714;9.472;2023-02-28T08:51:22;98874.28;;;0.01;100.00
6413;BME280;3239;48.714;9.472;2023-02-28T08:53:53;98869.44;;;-0.04;100.00
6413;BME280;3239;48.714;9.472;2023-02-28T08:56:20;98871.63;;;0.10;100.00
6413;BME280;3239;48.714;9.472;2023-02-28T08:58:47;98867.53;;;0.18;100.00
6413;BME280;3239;48.714;9.472;2023-02-28T09:01:21;98859.19;;;0.03;100.00
6413;BME280;3239;48.714;9.472;2023-02-28T09:03:49;98865.59;;;0.18;100.00
6413;BME280;3239;48.714;9.472;2023-02-28T09:06:17;98867.00;;;0.10;100.00
6413;BME280;3239;48.714;9.472;2023-02-28T09:08:44;98883.69;;;0.39;100.00
6413;BME280;3239;48.714;9.472;2023-02-28T09:11:10;98875.25;;;0.50;100.00
6413;BME280;3239;48.714;9.472;2023-02-28T09:13:37;98875.69;;;0.27;100.00
6413;BME280;3239;48.714;9.472;2023-02-28T09:16:06;98882.84;;;0.42;100.00
6413;BME280;3239;48.714;9.472;2023-02-28T09:18:34;98872.47;;;0.41;100.00
6413;BME280;3239;48.714;9.472;2023-02-28T09:21:05;98876.56;;;0.45;100.00
6413;BME280;3239;48.714;9.472;2023-02-28T09:23:31;98869.94;;;0.59;100.00
6413;BME280;3239;48.714;9.472;2023-02-28T09:25:57;98887.53;;;0.51;100.00
6413;BME280;3239;48.714;9.472;2023-02-28T09:28:23;98881.16;;;0.57;100.00
6413;BME280;3239;48.714;9.472;2023-02-28T09:30:52;98865.97;;;0.51;100.00
6413;BME280;3239;48.714;9.472;2023-02-28T09:33:21;98875.81;;;0.66;100.00
6413;BME280;3239;48.714;9.472;2023-02-28T09:35:49;98885.28;;;0.71;100.00
6413;BME280;3239;48.714;9.472;2023-02-28T09:38:15;98878.94;;;0.65;100.00
6413;BME280;3239;48.714;9.472;2023-02-28T09:40:54;98881.66;;;0.65;100.00
6413;BME280;3239;48.714;9.472;2023-02-28T09:43:25;98887.97;;;0.92;100.00
6413;BME280;3239;48.714;9.472;2023-02-28T09:48:44;98889.72;;;1.17;100.00
6413;BME280;3239;48.714;9.472;2023-02-28T09:54:24;98896.50;;;1.00;100.00
6413;BME280;3239;48.714;9.472;2023-02-28T10:00:01;98906.66;;;1.57;100.00
6413;BME280;3239;48.714;9.472;2023-02-28T10:02:55;98920.47;;;1.19;100.00
6413;BME280;3239;48.714;9.472;2023-02-28T10:05:30;98908.13;;;1.09;100.00
6413;BME280;3239;48.714;9.472;2023-02-28T10:10:46;98905.94;;;1.65;100.00
6413;BME280;3239;48.714;9.472;2023-02-28T10:13:32;98907.19;;;1.34;100.00
6413;BME280;3239;48.714;9.472;2023-02-28T10:16:12;98902.59;;;1.52;100.00
6413;BME280;3239;48.714;9.472;2023-02-28T10:19:11;98918.00;;;1.91;100.00
6413;BME280;3239;48.714;9.472;2023-02-28T10:21:44;98901.97;;;2.06;100.00
6413;BME280;3239;48.714;9.472;2023-02-28T10:27:12;98912.81;;;2.33;100.00
6413;BME280;3239;48.714;9.472;2023-02-28T10:29:43;98911.13;;;1.99;100.00
6413;BME280;3239;48.714;9.472;2023-02-28T10:32:14;98915.78;;;2.08;100.00
6413;BME280;3239;48.714;9.472;2023-02-28T10:34:41;98907.53;;;2.11;100.00
6413;BME280;3239;48.714;9.472;2023-02-28T10:37:07;98905.84;;;1.87;100.00
6413;BME280;3239;48.714;9.472;2023-02-28T10:42:05;98899.72;;;2.13;100.00
6413;BME280;3239;48.714;9.472;2023-02-28T10:44:43;98899.84;;;1.92;100.00
6413;BME280;3239;48.714;9.472;2023-02-28T10:47:16;98896.28;;;2.22;100.00
6413;BME280;3239;48.714;9.472;2023-02-28T10:49:48;98900.72;;;2.88;100.00
6413;BME280;3239;48.714;9.472;2023-02-28T10:52:37;98902.97;;;3.72;100.00
6413;BME280;3239;48.714;9.472;2023-02-28T10:55:33;98907.84;;;2.58;100.00
6413;BME280;3239;48.714;9.472;2023-02-28T10:57:59;98910.69;;;2.64;100.00
6413;BME280;3239;48.714;9.472;2023-02-28T11:00:33;98907.78;;;2.85;100.00
6413;BME280;3239;48.714;9.472;2023-02-28T11:02:59;98905.69;;;2.89;100.00
6413;BME280;3239;48.714;9.472;2023-02-28T11:05:33;98900.75;;;2.70;100.00
6413;BME280;3239;48.714;9.472;2023-02-28T11:08:16;98910.06;;;2.78;100.00
6413;BME280;3239;48.714;9.472;2023-02-28T11:11:04;98900.47;;;3.60;100.00
6413;BME280;3239;48.714;9.472;2023-02-28T11:13:36;98905.59;;;3.16;100.00
6413;BME280;3239;48.714;9.472;2023-02-28T11:16:10;98903.97;;;3.51;100.00
6413;BME280;3239;48.714;9.472;2023-02-28T11:18:42;98904.00;;;3.98;98.75
6413;BME280;3239;48.714;9.472;2023-02-28T11:21:14;98894.56;;;4.32;98.50
6413;BME280;3239;48.714;9.472;2023-02-28T11:23:42;98893.03;;;4.40;91.64
6413;BME280;3239;48.714;9.472;2023-02-28T11:26:09;98898.13;;;5.05;89.67
6413;BME280;3239;48.714;9.472;2023-02-28T11:28:40;98893.97;;;5.38;85.47
6413;BME280;3239;48.714;9.472;2023-02-28T11:33:53;98882.84;;;5.36;75.42
6413;BME280;3239;48.714;9.472;2023-02-28T11:36:28;98876.66;;;7.01;67.98
6413;BME280;3239;48.714;9.472;2023-02-28T11:38:56;98880.41;;;7.04;63.17
6413;BME280;3239;48.714;9.472;2023-02-28T11:41:45;98878.50;;;6.84;60.23
6413;BME280;3239;48.714;9.472;2023-02-28T11:45:18;98871.31;;;8.55;57.53
6413;BME280;3239;48.714;9.472;2023-02-28T11:47:47;98878.34;;;8.83;52.85
6413;BME280;3239;48.714;9.472;2023-02-28T11:53:50;98875.41;;;7.70;53.72
6413;BME280;3239;48.714;9.472;2023-02-28T11:56:28;98869.81;;;8.43;52.00
6413;BME280;3239;48.714;9.472;2023-02-28T11:59:42;98861.72;;;9.03;52.29
6413;BME280;3239;48.714;9.472;2023-02-28T12:05:46;98866.94;;;10.76;48.08
6413;BME280;3239;48.714;9.472;2023-02-28T12:10:57;98861.44;;;10.35;47.51
6413;BME280;3239;48.714;9.472;2023-02-28T12:16:37;98863.13;;;10.90;42.82
6413;BME280;3239;48.714;9.472;2023-02-28T12:19:30;98856.22;;;8.70;48.14
6413;BME280;3239;48.714;9.472;2023-02-28T12:22:36;98845.78;;;8.52;48.95
6413;BME280;3239;48.714;9.472;2023-02-28T12:27:37;98835.34;;;11.04;43.59
6413;BME280;3239;48.714;9.472;2023-02-28T12:30:17;98822.25;;;11.45;43.84
6413;BME280;3239;48.714;9.472;2023-02-28T12:33:14;98836.22;;;10.48;43.27
6413;BME280;3239;48.714;9.472;2023-02-28T12:35:49;98832.66;;;10.99;41.47
6413;BME280;3239;48.714;9.472;2023-02-28T12:38:24;98831.88;;;11.04;43.03
6413;BME280;3239;48.714;9.472;2023-02-28T12:41:00;98822.28;;;10.86;41.68
6413;BME280;3239;48.714;9.472;2023-02-28T12:43:37;98827.84;;;10.75;41.93
6413;BME280;3239;48.714;9.472;2023-02-28T12:46:24;98820.56;;;10.83;42.07
6413;BME280;3239;48.714;9.472;2023-02-28T12:48:56;98819.28;;;13.15;39.53
6413;BME280;3239;48.714;9.472;2023-02-28T12:51:25;98816.22;;;13.06;38.06
6413;BME280;3239;48.714;9.472;2023-02-28T12:54:00;98813.53;;;14.23;36.18
6413;BME280;3239;48.714;9.472;2023-02-28T12:59:53;98802.66;;;13.08;36.39
6413;BME280;3239;48.714;9.472;2023-02-28T13:11:38;98801.53;;;15.49;33.17
6413;BME280;3239;48.714;9.472;2023-02-28T13:22:45;98798.13;;;14.27;35.77
6413;BME280;3239;48.714;9.472;2023-02-28T13:28:00;98792.84;;;16.59;30.60
6413;BME280;3239;48.714;9.472;2023-02-28T13:38:45;98787.53;;;17.81;30.18
6413;BME280;3239;48.714;9.472;2023-02-28T13:44:21;98791.38;;;15.23;31.82
6413;BME280;3239;48.714;9.472;2023-02-28T13:55:06;98787.56;;;16.25;31.32
6413;BME280;3239;48.714;9.472;2023-02-28T14:00:54;98784.69;;;18.03;28.29
6413;BME280;3239;48.714;9.472;2023-02-28T14:06:35;98783.50;;;16.99;28.97
6413;BME280;3239;48.714;9.472;2023-02-28T14:09:24;98790.06;;;12.81;33.05
6413;BME280;3239;48.714;9.472;2023-02-28T14:11:51;98790.38;;;12.09;36.07
6413;BME280;3239;48.714;9.472;2023-02-28T14:17:14;98785.84;;;15.03;33.22
6413;BME280;3239;48.714;9.472;2023-02-28T14:19:43;98789.09;;;15.14;32.42
6413;BME280;3239;48.714;9.472;2023-02-28T14:22:48;98789.22;;;16.21;31.16
6413;BME280;3239;48.714;9.472;2023-02-28T14:25:47;98800.03;;;15.27;31.78
6413;BME280;3239;48.714;9.472;2023-02-28T14:28:36;98800.75;;;13.86;33.26
6413;BME280;3239;48.714;9.472;2023-02-28T14:36:32;98796.13;;;13.24;34.14
6413;BME280;3239;48.714;9.472;2023-02-28T14:39:13;98801.75;;;13.31;34.88
6413;BME280;3239;48.714;9.472;2023-02-28T14:41:44;98801.44;;;14.13;34.13
6413;BME280;3239;48.714;9.472;2023-02-28T14:44:22;98806.25;;;14.79;33.55
6413;BME280;3239;48.714;9.472;2023-02-28T14:46:58;98803.38;;;13.53;33.89
6413;BME280;3239;48.714;9.472;2023-02-28T14:49:28;98798.06;;;12.66;35.20
6413;BME280;3239;48.714;9.472;2023-02-28T14:52:09;98804.94;;;15.62;32.62
6413;BME280;3239;48.714;9.472;2023-02-28T14:54:39;98805.47;;;14.25;33.22
6413;BME280;3239;48.714;9.472;2023-02-28T14:57:06;98804.31;;;14.87;33.08
6413;BME280;3239;48.714;9.472;2023-02-28T14:59:34;98804.63;;;14.17;32.64
6413;BME280;3239;48.714;9.472;2023-02-28T15:02:20;98806.13;;;16.53;30.97
6413;BME280;3239;48.714;9.472;2023-02-28T15:05:23;98805.13;;;14.62;32.87
6413;BME280;3239;48.714;9.472;2023-02-28T15:07:48;98815.56;;;16.22;32.13
6413;BME280;3239;48.714;9.472;2023-02-28T15:10:25;98804.91;;;17.21;29.95
6413;BME280;3239;48.714;9.472;2023-02-28T15:13:00;98812.16;;;15.04;31.50
6413;BME280;3239;48.714;9.472;2023-02-28T15:15:55;98809.22;;;15.71;31.56
6413;BME280;3239;48.714;9.472;2023-02-28T15:21:22;98816.31;;;12.82;34.40
6413;BME280;3239;48.714;9.472;2023-02-28T15:24:19;98807.06;;;12.66;35.57
6413;BME280;3239;48.714;9.472;2023-02-28T15:26:58;98818.97;;;14.49;33.49
6413;BME280;3239;48.714;9.472;2023-02-28T15:29:27;98823.25;;;14.37;33.33
6413;BME280;3239;48.714;9.472;2023-02-28T15:32:02;98817.50;;;13.18;34.63
6413;BME280;3239;48.714;9.472;2023-02-28T15:34:39;98813.53;;;11.71;36.74
6413;BME280;3239;48.714;9.472;2023-02-28T15:37:37;98808.28;;;10.90;39.02
6413;BME280;3239;48.714;9.472;2023-02-28T15:43:16;98822.91;;;9.49;42.50
6413;BME280;3239;48.714;9.472;2023-02-28T15:45:49;98824.94;;;9.10;43.78
6413;BME280;3239;48.714;9.472;2023-02-28T15:48:22;98815.00;;;9.12;42.85
6413;BME280;3239;48.714;9.472;2023-02-28T15:51:16;98817.94;;;9.58;43.75
6413;BME280;3239;48.714;9.472;2023-02-28T15:53:56;98818.34;;;9.79;43.15
6413;BME280;3239;48.714;9.472;2023-02-28T15:56:31;98817.50;;;10.57;41.71